sensor_id;sensor_type;location;lat;lon;timestamp;temperature;humidity
76470;DHT22;65305;52.870;13.660;2023-02-18T00:02:10;6.60;62.70
76470;DHT22;65305;52.870;13.660;2023-02-18T00:04:36;6.60;62.70
76470;DHT22;65305;52.870;13.660;2023-02-18T00:07:03;6.60;62.60
76470;DHT22;65305;52.870;13.660;2023-02-18T00:09:29;6.60;62.50
76470;DHT22;65305;52.870;13.660;2023-02-18T00:11:56;6.60;62.70
76470;DHT22;65305;52.870;13.660;2023-02-18T00:14:23;6.60;62.60
76470;DHT22;65305;52.870;13.660;2023-02-18T00:16:49;6.60;62.50
76470;DHT22;65305;52.870;13.660;2023-02-18T00:19:17;6.60;62.70
76470;DHT22;65305;52.870;13.660;2023-02-18T00:21:43;6.60;62.60
76470;DHT22;65305;52.870;13.660;2023-02-18T00:24:11;6.50;62.90
76470;DHT22;65305;52.870;13.660;2023-02-18T00:26:40;6.60;62.50
76470;DHT22;65305;52.870;13.660;2023-02-18T00:29:06;6.60;62.60
76470;DHT22;65305;52.870;13.660;2023-02-18T00:31:34;6.60;62.70
76470;DHT22;65305;52.870;13.660;2023-02-18T00:34:01;6.60;62.50
76470;DHT22;65305;52.870;13.660;2023-02-18T00:36:28;6.60;62.40
76470;DHT22;65305;52.870;13.660;2023-02-18T00:38:56;6.60;62.30
76470;DHT22;65305;52.870;13.660;2023-02-18T00:41:23;6.60;62.30
76470;DHT22;65305;52.870;13.660;2023-02-18T00:43:50;6.60;62.60
76470;DHT22;65305;52.870;13.660;2023-02-18T00:46:17;6.50;62.60
76470;DHT22;65305;52.870;13.660;2023-02-18T00:48:43;6.50;62.40
76470;DHT22;65305;52.870;13.660;2023-02-18T00:51:10;6.60;62.30
76470;DHT22;65305;52.870;13.660;2023-02-18T00:53:36;6.50;62.30
76470;DHT22;65305;52.870;13.660;2023-02-18T00:56:03;6.60;62.40
76470;DHT22;65305;52.870;13.660;2023-02-18T00:58:29;6.50;62.30
76470;DHT22;65305;52.870;13.660;2023-02-18T01:00:56;6.50;62.50
76470;DHT22;65305;52.870;13.660;2023-02-18T01:03:22;6.60;62.40
76470;DHT22;65305;52.870;13.660;2023-02-18T01:05:49;6.50;62.70
76470;DHT22;65305;52.870;13.660;2023-02-18T01:08:16;6.50;62.50
76470;DHT22;65305;52.870;13.660;2023-02-18T01:10:44;6.50;62.40
76470;DHT22;65305;52.870;13.660;2023-02-18T01:13:12;6.50;62.30
76470;DHT22;65305;52.870;13.660;2023-02-18T01:15:39;6.50;62.40
76470;DHT22;65305;52.870;13.660;2023-02-18T01:18:05;6.50;62.30
76470;DHT22;65305;52.870;13.660;2023-02-18T01:20:33;6.50;62.50
76470;DHT22;65305;52.870;13.660;2023-02-18T01:22:59;6.50;62.40
76470;DHT22;65305;52.870;13.660;2023-02-18T01:25:26;6.50;62.50
76470;DHT22;65305;52.870;13.660;2023-02-18T01:27:52;6.50;62.40
76470;DHT22;65305;52.870;13.660;2023-02-18T01:30:19;6.50;62.40
76470;DHT22;65305;52.870;13.660;2023-02-18T01:32:47;6.50;62.50
76470;DHT22;65305;52.870;13.660;2023-02-18T01:35:14;6.50;62.50
76470;DHT22;65305;52.870;13.660;2023-02-18T01:37:41;6.50;62.50
76470;DHT22;65305;52.870;13.660;2023-02-18T01:40:09;6.50;62.50
76470;DHT22;65305;52.870;13.660;2023-02-18T01:42:36;6.50;62.60
76470;DHT22;65305;52.870;13.660;2023-02-18T01:47:47;6.50;62.50
76470;DHT22;65305;52.870;13.660;2023-02-18T01:50:14;6.50;62.50
76470;DHT22;65305;52.870;13.660;2023-02-18T01:52:40;6.50;62.40
76470;DHT22;65305;52.870;13.660;2023-02-18T01:55:07;6.50;62.40
76470;DHT22;65305;52.870;13.660;2023-02-18T01:57:34;6.50;62.60
76470;DHT22;65305;52.870;13.660;2023-02-18T02:00:05;6.50;62.60
76470;DHT22;65305;52.870;13.660;2023-02-18T02:02:34;6.50;62.50
76470;DHT22;65305;52.870;13.660;2023-02-18T02:05:02;6.50;62.70
76470;DHT22;65305;52.870;13.660;2023-02-18T02:07:29;6.50;62.60
76470;DHT22;65305;52.870;13.660;2023-02-18T02:09:56;6.50;62.60
76470;DHT22;65305;52.870;13.660;2023-02-18T02:12:44;6.50;62.70
76470;DHT22;65305;52.870;13.660;2023-02-18T02:15:22;6.50;62.70
76470;DHT22;65305;52.870;13.660;2023-02-18T02:23:28;6.50;62.80
76470;DHT22;65305;52.870;13.660;2023-02-18T02:26:09;6.50;62.60
76470;DHT22;65305;52.870;13.660;2023-02-18T02:28:59;6.50;62.70
76470;DHT22;65305;52.870;13.660;2023-02-18T02:38:59;6.50;62.80
76470;DHT22;65305;52.870;13.660;2023-02-18T02:44:17;6.50;62.80
76470;DHT22;65305;52.870;13.660;2023-02-18T02:46:46;6.50;62.80
76470;DHT22;65305;52.870;13.660;2023-02-18T02:52:02;6.50;62.80
76470;DHT22;65305;52.870;13.660;2023-02-18T02:54:31;6.40;62.80
76470;DHT22;65305;52.870;13.660;2023-02-18T02:57:07;6.50;62.90
76470;DHT22;65305;52.870;13.660;2023-02-18T02:59:35;6.40;62.90
76470;DHT22;65305;52.870;13.660;2023-02-18T03:02:17;6.50;62.90
76470;DHT22;65305;52.870;13.660;2023-02-18T03:15:31;6.40;62.90
76470;DHT22;65305;52.870;13.660;2023-02-18T03:18:05;6.40;63.00
76470;DHT22;65305;52.870;13.660;2023-02-18T03:20:34;6.40;63.10
76470;DHT22;65305;52.870;13.660;2023-02-18T03:23:02;6.40;63.00
76470;DHT22;65305;52.870;13.660;2023-02-18T03:25:30;6.40;63.00
76470;DHT22;65305;52.870;13.660;2023-02-18T03:27:59;6.40;63.10
76470;DHT22;65305;52.870;13.660;2023-02-18T03:30:30;6.40;63.00
76470;DHT22;65305;52.870;13.660;2023-02-18T03:32:59;6.40;63.10
76470;DHT22;65305;52.870;13.660;2023-02-18T03:35:28;6.40;63.00
76470;DHT22;65305;52.870;13.660;2023-02-18T03:38:02;6.40;63.00
76470;DHT22;65305;52.870;13.660;2023-02-18T03:40:29;6.40;63.00
76470;DHT22;65305;52.870;13.660;2023-02-18T03:42:57;6.40;63.10
76470;DHT22;65305;52.870;13.660;2023-02-18T03:45:24;6.40;63.10
76470;DHT22;65305;52.870;13.660;2023-02-18T03:47:51;6.40;63.00
76470;DHT22;65305;52.870;13.660;2023-02-18T03:50:17;6.40;63.30
76470;DHT22;65305;52.870;13.660;2023-02-18T03:52:44;6.40;63.10
76470;DHT22;65305;52.870;13.660;2023-02-18T03:55:10;6.40;63.00
76470;DHT22;65305;52.870;13.660;2023-02-18T03:57:36;6.40;63.20
76470;DHT22;65305;52.870;13.660;2023-02-18T04:00:04;6.40;63.10
76470;DHT22;65305;52.870;13.660;2023-02-18T04:02:31;6.40;63.20
76470;DHT22;65305;52.870;13.660;2023-02-18T04:04:57;6.40;63.10
76470;DHT22;65305;52.870;13.660;2023-02-18T04:07:23;6.40;63.20
76470;DHT22;65305;52.870;13.660;2023-02-18T04:09:49;6.40;63.30
76470;DHT22;65305;52.870;13.660;2023-02-18T04:12:15;6.40;63.20
76470;DHT22;65305;52.870;13.660;2023-02-18T04:14:41;6.40;63.20
76470;DHT22;65305;52.870;13.660;2023-02-18T04:17:08;6.40;63.20
76470;DHT22;65305;52.870;13.660;2023-02-18T04:19:34;6.40;63.30
76470;DHT22;65305;52.870;13.660;2023-02-18T04:22:00;6.30;63.20
76470;DHT22;65305;52.870;13.660;2023-02-18T04:24:26;6.40;63.20
76470;DHT22;65305;52.870;13.660;2023-02-18T04:26:53;6.40;63.20
76470;DHT22;65305;52.870;13.660;2023-02-18T04:29:19;6.40;63.20
76470;DHT22;65305;52.870;13.660;2023-02-18T04:31:45;6.40;63.30
76470;DHT22;65305;52.870;13.660;2023-02-18T04:34:12;6.40;63.20
76470;DHT22;65305;52.870;13.660;2023-02-18T04:36:38;6.30;63.30
76470;DHT22;65305;52.870;13.660;2023-02-18T04:39:04;6.30;63.20
76470;DHT22;65305;52.870;13.660;2023-02-18T04:41:31;6.30;63.30
76470;DHT22;65305;52.870;13.660;2023-02-18T04:43:57;6.40;63.30
76470;DHT22;65305;52.870;13.660;2023-02-18T04:46:24;6.30;63.20
76470;DHT22;65305;52.870;13.660;2023-02-18T04:48:50;6.30;63.20
76470;DHT22;65305;52.870;13.660;2023-02-18T04:51:16;6.30;63.20
76470;DHT22;65305;52.870;13.660;2023-02-18T04:53:45;6.30;63.20
76470;DHT22;65305;52.870;13.660;2023-02-18T04:56:12;6.30;63.30
76470;DHT22;65305;52.870;13.660;2023-02-18T04:58:38;6.30;63.30
76470;DHT22;65305;52.870;13.660;2023-02-18T05:01:05;6.30;63.30
76470;DHT22;65305;52.870;13.660;2023-02-18T05:03:35;6.30;63.20
76470;DHT22;65305;52.870;13.660;2023-02-18T05:06:02;6.30;63.20
76470;DHT22;65305;52.870;13.660;2023-02-18T05:08:28;6.30;63.30
76470;DHT22;65305;52.870;13.660;2023-02-18T05:10:55;6.30;63.30
76470;DHT22;65305;52.870;13.660;2023-02-18T05:13:21;6.30;63.30
76470;DHT22;65305;52.870;13.660;2023-02-18T05:15:48;6.30;63.20
76470;DHT22;65305;52.870;13.660;2023-02-18T05:18:14;6.30;63.20
76470;DHT22;65305;52.870;13.660;2023-02-18T05:20:41;6.30;63.20
76470;DHT22;65305;52.870;13.660;2023-02-18T05:23:08;6.30;63.30
76470;DHT22;65305;52.870;13.660;2023-02-18T05:25:35;6.30;63.20
76470;DHT22;65305;52.870;13.660;2023-02-18T05:28:01;6.30;63.20
76470;DHT22;65305;52.870;13.660;2023-02-18T05:30:28;6.30;63.20
76470;DHT22;65305;52.870;13.660;2023-02-18T05:32:54;6.30;63.20
76470;DHT22;65305;52.870;13.660;2023-02-18T05:35:21;6.30;63.30
76470;DHT22;65305;52.870;13.660;2023-02-18T05:37:47;6.30;63.20
76470;DHT22;65305;52.870;13.660;2023-02-18T05:40:14;6.30;63.10
76470;DHT22;65305;52.870;13.660;2023-02-18T05:42:40;6.30;63.00
76470;DHT22;65305;52.870;13.660;2023-02-18T05:45:07;6.30;63.10
76470;DHT22;65305;52.870;13.660;2023-02-18T05:47:34;6.30;63.20
76470;DHT22;65305;52.870;13.660;2023-02-18T05:50:00;6.30;63.00
76470;DHT22;65305;52.870;13.660;2023-02-18T05:52:27;6.30;63.10
76470;DHT22;65305;52.870;13.660;2023-02-18T05:54:53;6.30;63.20
76470;DHT22;65305;52.870;13.660;2023-02-18T05:57:19;6.30;63.10
76470;DHT22;65305;52.870;13.660;2023-02-18T05:59:46;6.20;63.00
76470;DHT22;65305;52.870;13.660;2023-02-18T06:02:12;6.30;63.00
76470;DHT22;65305;52.870;13.660;2023-02-18T06:04:39;6.30;63.00
76470;DHT22;65305;52.870;13.660;2023-02-18T06:07:05;6.20;62.90
76470;DHT22;65305;52.870;13.660;2023-02-18T06:09:32;6.20;63.00
76470;DHT22;65305;52.870;13.660;2023-02-18T06:11:58;6.20;63.10
76470;DHT22;65305;52.870;13.660;2023-02-18T06:14:25;6.30;63.00
76470;DHT22;65305;52.870;13.660;2023-02-18T06:16:52;6.20;63.00
76470;DHT22;65305;52.870;13.660;2023-02-18T06:19:18;6.30;63.10
76470;DHT22;65305;52.870;13.660;2023-02-18T06:21:45;6.20;63.00
76470;DHT22;65305;52.870;13.660;2023-02-18T06:24:11;6.30;62.90
76470;DHT22;65305;52.870;13.660;2023-02-18T06:26:37;6.30;63.10
76470;DHT22;65305;52.870;13.660;2023-02-18T06:29:04;6.30;63.00
76470;DHT22;65305;52.870;13.660;2023-02-18T06:31:31;6.20;62.90
76470;DHT22;65305;52.870;13.660;2023-02-18T06:33:57;6.20;63.00
76470;DHT22;65305;52.870;13.660;2023-02-18T06:36:24;6.20;63.00
76470;DHT22;65305;52.870;13.660;2023-02-18T06:38:50;6.20;63.00
76470;DHT22;65305;52.870;13.660;2023-02-18T06:41:17;6.20;62.90
76470;DHT22;65305;52.870;13.660;2023-02-18T06:43:43;6.20;63.00
76470;DHT22;65305;52.870;13.660;2023-02-18T06:46:09;6.20;63.00
76470;DHT22;65305;52.870;13.660;2023-02-18T06:48:36;6.20;63.00
76470;DHT22;65305;52.870;13.660;2023-02-18T06:51:03;6.20;62.90
76470;DHT22;65305;52.870;13.660;2023-02-18T06:53:30;6.20;63.00
76470;DHT22;65305;52.870;13.660;2023-02-18T06:55:57;6.20;62.90
76470;DHT22;65305;52.870;13.660;2023-02-18T06:58:23;6.20;63.00
76470;DHT22;65305;52.870;13.660;2023-02-18T07:00:49;6.20;63.00
76470;DHT22;65305;52.870;13.660;2023-02-18T07:03:16;6.20;62.90
76470;DHT22;65305;52.870;13.660;2023-02-18T07:05:42;6.20;62.90
76470;DHT22;65305;52.870;13.660;2023-02-18T07:08:09;6.20;62.90
76470;DHT22;65305;52.870;13.660;2023-02-18T07:10:36;6.20;62.90
76470;DHT22;65305;52.870;13.660;2023-02-18T07:13:02;6.20;62.90
76470;DHT22;65305;52.870;13.660;2023-02-18T07:15:29;6.20;62.90
76470;DHT22;65305;52.870;13.660;2023-02-18T07:17:55;6.20;62.90
76470;DHT22;65305;52.870;13.660;2023-02-18T07:20:22;6.20;62.90
76470;DHT22;65305;52.870;13.660;2023-02-18T07:22:49;6.20;62.90
76470;DHT22;65305;52.870;13.660;2023-02-18T07:25:16;6.20;62.90
76470;DHT22;65305;52.870;13.660;2023-02-18T07:27:43;6.20;62.90
76470;DHT22;65305;52.870;13.660;2023-02-18T07:30:09;6.20;62.90
76470;DHT22;65305;52.870;13.660;2023-02-18T07:32:36;6.20;62.90
76470;DHT22;65305;52.870;13.660;2023-02-18T07:35:03;6.20;63.00
76470;DHT22;65305;52.870;13.660;2023-02-18T07:37:30;6.20;62.90
76470;DHT22;65305;52.870;13.660;2023-02-18T07:39:57;6.20;62.80
76470;DHT22;65305;52.870;13.660;2023-02-18T07:42:23;6.20;62.90
76470;DHT22;65305;52.870;13.660;2023-02-18T07:44:50;6.20;62.90
76470;DHT22;65305;52.870;13.660;2023-02-18T07:47:16;6.20;62.80
76470;DHT22;65305;52.870;13.660;2023-02-18T07:49:44;6.20;62.80
76470;DHT22;65305;52.870;13.660;2023-02-18T07:52:11;6.20;62.90
76470;DHT22;65305;52.870;13.660;2023-02-18T07:54:38;6.20;62.90
76470;DHT22;65305;52.870;13.660;2023-02-18T07:57:04;6.20;62.90
76470;DHT22;65305;52.870;13.660;2023-02-18T07:59:31;6.20;62.90
76470;DHT22;65305;52.870;13.660;2023-02-18T08:01:58;6.20;62.80
76470;DHT22;65305;52.870;13.660;2023-02-18T08:04:24;6.20;62.80
76470;DHT22;65305;52.870;13.660;2023-02-18T08:06:51;6.20;62.80
76470;DHT22;65305;52.870;13.660;2023-02-18T08:09:17;6.20;62.80
76470;DHT22;65305;52.870;13.660;2023-02-18T08:11:44;6.20;62.90
76470;DHT22;65305;52.870;13.660;2023-02-18T08:14:10;6.20;62.90
76470;DHT22;65305;52.870;13.660;2023-02-18T08:16:37;6.20;62.90
76470;DHT22;65305;52.870;13.660;2023-02-18T08:19:03;6.20;62.80
76470;DHT22;65305;52.870;13.660;2023-02-18T08:21:30;6.20;62.80
76470;DHT22;65305;52.870;13.660;2023-02-18T08:23:57;6.20;62.80
76470;DHT22;65305;52.870;13.660;2023-02-18T08:26:24;6.20;62.70
76470;DHT22;65305;52.870;13.660;2023-02-18T08:28:50;6.20;62.80
76470;DHT22;65305;52.870;13.660;2023-02-18T08:31:18;6.20;62.70
76470;DHT22;65305;52.870;13.660;2023-02-18T08:33:45;6.20;62.70
76470;DHT22;65305;52.870;13.660;2023-02-18T08:36:12;6.20;62.70
76470;DHT22;65305;52.870;13.660;2023-02-18T08:38:38;6.20;62.80
76470;DHT22;65305;52.870;13.660;2023-02-18T08:41:06;6.10;62.70
76470;DHT22;65305;52.870;13.660;2023-02-18T08:43:32;6.20;62.80
76470;DHT22;65305;52.870;13.660;2023-02-18T08:45:59;6.20;62.80
76470;DHT22;65305;52.870;13.660;2023-02-18T08:48:26;6.20;62.70
76470;DHT22;65305;52.870;13.660;2023-02-18T08:50:53;6.20;62.90
76470;DHT22;65305;52.870;13.660;2023-02-18T08:53:21;6.20;62.90
76470;DHT22;65305;52.870;13.660;2023-02-18T08:55:48;6.20;62.80
76470;DHT22;65305;52.870;13.660;2023-02-18T08:58:14;6.20;62.80
76470;DHT22;65305;52.870;13.660;2023-02-18T09:00:42;6.20;62.80
76470;DHT22;65305;52.870;13.660;2023-02-18T09:03:12;6.10;62.90
76470;DHT22;65305;52.870;13.660;2023-02-18T09:05:39;6.20;62.80
76470;DHT22;65305;52.870;13.660;2023-02-18T09:08:05;6.20;62.90
76470;DHT22;65305;52.870;13.660;2023-02-18T09:10:32;6.20;62.90
76470;DHT22;65305;52.870;13.660;2023-02-18T09:12:58;6.10;63.00
76470;DHT22;65305;52.870;13.660;2023-02-18T09:15:25;6.20;62.90
76470;DHT22;65305;52.870;13.660;2023-02-18T09:17:51;6.10;62.90
76470;DHT22;65305;52.870;13.660;2023-02-18T09:20:18;6.10;62.90
76470;DHT22;65305;52.870;13.660;2023-02-18T09:22:44;6.20;62.90
76470;DHT22;65305;52.870;13.660;2023-02-18T09:25:12;6.10;62.90
76470;DHT22;65305;52.870;13.660;2023-02-18T09:27:39;6.10;63.00
76470;DHT22;65305;52.870;13.660;2023-02-18T09:30:06;6.10;62.90
76470;DHT22;65305;52.870;13.660;2023-02-18T09:32:32;6.20;63.00
76470;DHT22;65305;52.870;13.660;2023-02-18T09:34:59;6.10;63.00
76470;DHT22;65305;52.870;13.660;2023-02-18T09:37:25;6.20;63.00
76470;DHT22;65305;52.870;13.660;2023-02-18T09:39:52;6.10;63.10
76470;DHT22;65305;52.870;13.660;2023-02-18T09:42:19;6.20;63.00
76470;DHT22;65305;52.870;13.660;2023-02-18T09:44:50;6.20;62.90
76470;DHT22;65305;52.870;13.660;2023-02-18T09:47:24;6.10;63.20
76470;DHT22;65305;52.870;13.660;2023-02-18T09:49:57;6.10;63.10
76470;DHT22;65305;52.870;13.660;2023-02-18T09:52:29;6.10;62.90
76470;DHT22;65305;52.870;13.660;2023-02-18T09:54:56;6.10;63.00
76470;DHT22;65305;52.870;13.660;2023-02-18T09:57:27;6.10;62.90
76470;DHT22;65305;52.870;13.660;2023-02-18T09:59:59;6.10;63.00
76470;DHT22;65305;52.870;13.660;2023-02-18T10:02:27;6.10;62.90
76470;DHT22;65305;52.870;13.660;2023-02-18T10:04:53;6.10;62.90
76470;DHT22;65305;52.870;13.660;2023-02-18T10:07:22;6.10;62.90
76470;DHT22;65305;52.870;13.660;2023-02-18T10:09:51;6.10;62.80
76470;DHT22;65305;52.870;13.660;2023-02-18T10:12:20;6.10;62.80
76470;DHT22;65305;52.870;13.660;2023-02-18T10:14:53;6.10;62.90
76470;DHT22;65305;52.870;13.660;2023-02-18T10:17:21;6.10;62.80
76470;DHT22;65305;52.870;13.660;2023-02-18T10:19:50;6.10;62.80
76470;DHT22;65305;52.870;13.660;2023-02-18T10:22:18;6.10;62.90
76470;DHT22;65305;52.870;13.660;2023-02-18T10:24:52;6.10;62.90
76470;DHT22;65305;52.870;13.660;2023-02-18T10:27:22;6.10;62.80
76470;DHT22;65305;52.870;13.660;2023-02-18T10:29:51;6.10;62.80
76470;DHT22;65305;52.870;13.660;2023-02-18T10:32:21;6.10;62.80
76470;DHT22;65305;52.870;13.660;2023-02-18T10:34:53;6.10;62.80
76470;DHT22;65305;52.870;13.660;2023-02-18T10:39:53;6.10;62.90
76470;DHT22;65305;52.870;13.660;2023-02-18T10:42:37;6.10;62.90
76470;DHT22;65305;52.870;13.660;2023-02-18T10:47:37;6.10;62.80
76470;DHT22;65305;52.870;13.660;2023-02-18T10:53:10;6.10;62.80
76470;DHT22;65305;52.870;13.660;2023-02-18T10:55:39;6.10;62.80
76470;DHT22;65305;52.870;13.660;2023-02-18T11:00:50;6.10;62.80
76470;DHT22;65305;52.870;13.660;2023-02-18T11:03:18;6.10;62.90
76470;DHT22;65305;52.870;13.660;2023-02-18T11:05:45;6.10;62.90
76470;DHT22;65305;52.870;13.660;2023-02-18T11:08:16;6.10;62.80
76470;DHT22;65305;52.870;13.660;2023-02-18T11:10:44;6.10;62.80
76470;DHT22;65305;52.870;13.660;2023-02-18T11:13:15;6.10;62.80
76470;DHT22;65305;52.870;13.660;2023-02-18T11:15:57;6.10;62.90
76470;DHT22;65305;52.870;13.660;2023-02-18T11:18:28;6.10;62.80
76470;DHT22;65305;52.870;13.660;2023-02-18T11:20:57;6.10;63.00
76470;DHT22;65305;52.870;13.660;2023-02-18T11:23:24;6.10;62.80
76470;DHT22;65305;52.870;13.660;2023-02-18T11:28:29;6.10;62.70
76470;DHT22;65305;52.870;13.660;2023-02-18T11:30:58;6.10;62.70
76470;DHT22;65305;52.870;13.660;2023-02-18T11:33:39;6.10;62.60
76470;DHT22;65305;52.870;13.660;2023-02-18T11:38:58;6.10;62.60
76470;DHT22;65305;52.870;13.660;2023-02-18T11:41:31;6.10;62.60
76470;DHT22;65305;52.870;13.660;2023-02-18T11:43:59;6.10;62.60
76470;DHT22;65305;52.870;13.660;2023-02-18T11:46:26;6.10;62.60
76470;DHT22;65305;52.870;13.660;2023-02-18T11:48:53;6.10;62.60
76470;DHT22;65305;52.870;13.660;2023-02-18T11:51:21;6.10;62.60
76470;DHT22;65305;52.870;13.660;2023-02-18T11:53:55;6.10;62.70
76470;DHT22;65305;52.870;13.660;2023-02-18T11:56:25;6.10;62.60
76470;DHT22;65305;52.870;13.660;2023-02-18T11:58:51;6.10;62.60
76470;DHT22;65305;52.870;13.660;2023-02-18T12:01:24;6.10;62.50
76470;DHT22;65305;52.870;13.660;2023-02-18T12:06:24;6.10;62.50
76470;DHT22;65305;52.870;13.660;2023-02-18T12:08:53;6.10;62.60
76470;DHT22;65305;52.870;13.660;2023-02-18T12:11:26;6.00;62.50
76470;DHT22;65305;52.870;13.660;2023-02-18T12:13:55;6.00;62.50
76470;DHT22;65305;52.870;13.660;2023-02-18T12:24:25;6.00;62.60
76470;DHT22;65305;52.870;13.660;2023-02-18T12:32:11;6.00;63.50
76470;DHT22;65305;52.870;13.660;2023-02-18T12:37:34;6.00;63.40
76470;DHT22;65305;52.870;13.660;2023-02-18T12:42:56;6.00;63.20
76470;DHT22;65305;52.870;13.660;2023-02-18T12:45:36;6.00;63.50
76470;DHT22;65305;52.870;13.660;2023-02-18T12:50:44;6.00;63.30
76470;DHT22;65305;52.870;13.660;2023-02-18T13:03:20;6.00;63.30
76470;DHT22;65305;52.870;13.660;2023-02-18T13:05:56;6.00;63.50
76470;DHT22;65305;52.870;13.660;2023-02-18T13:08:45;6.00;63.20
76470;DHT22;65305;52.870;13.660;2023-02-18T13:11:19;6.00;63.20
76470;DHT22;65305;52.870;13.660;2023-02-18T13:16:26;6.00;63.40
76470;DHT22;65305;52.870;13.660;2023-02-18T13:19:09;6.00;63.30
76470;DHT22;65305;52.870;13.660;2023-02-18T13:21:41;6.00;63.30
76470;DHT22;65305;52.870;13.660;2023-02-18T13:24:10;6.00;63.90
76470;DHT22;65305;52.870;13.660;2023-02-18T13:26:37;6.00;63.60
76470;DHT22;65305;52.870;13.660;2023-02-18T13:32:07;6.00;64.00
76470;DHT22;65305;52.870;13.660;2023-02-18T13:34:38;6.00;64.10
76470;DHT22;65305;52.870;13.660;2023-02-18T13:37:11;6.00;64.80
76470;DHT22;65305;52.870;13.660;2023-02-18T13:39:51;6.00;64.40
76470;DHT22;65305;52.870;13.660;2023-02-18T13:42:31;6.00;64.20
76470;DHT22;65305;52.870;13.660;2023-02-18T13:47:36;6.00;63.90
76470;DHT22;65305;52.870;13.660;2023-02-18T13:52:48;6.00;63.70
76470;DHT22;65305;52.870;13.660;2023-02-18T13:55:21;6.00;63.70
76470;DHT22;65305;52.870;13.660;2023-02-18T13:57:49;6.00;63.70
76470;DHT22;65305;52.870;13.660;2023-02-18T14:00:23;6.00;63.60
76470;DHT22;65305;52.870;13.660;2023-02-18T14:02:58;6.00;63.60
76470;DHT22;65305;52.870;13.660;2023-02-18T14:05:25;6.00;63.50
76470;DHT22;65305;52.870;13.660;2023-02-18T14:08:13;6.00;64.10
76470;DHT22;65305;52.870;13.660;2023-02-18T14:10:40;6.00;64.20
76470;DHT22;65305;52.870;13.660;2023-02-18T14:15:55;6.00;64.10
76470;DHT22;65305;52.870;13.660;2023-02-18T14:18:23;6.00;63.90
76470;DHT22;65305;52.870;13.660;2023-02-18T14:20:50;6.00;63.80
76470;DHT22;65305;52.870;13.660;2023-02-18T14:31:02;6.00;63.70
76470;DHT22;65305;52.870;13.660;2023-02-18T14:33:30;6.00;64.40
76470;DHT22;65305;52.870;13.660;2023-02-18T14:51:41;6.00;64.20
76470;DHT22;65305;52.870;13.660;2023-02-18T14:54:12;6.00;64.20
76470;DHT22;65305;52.870;13.660;2023-02-18T14:56:41;6.00;64.00
76470;DHT22;65305;52.870;13.660;2023-02-18T14:59:11;6.00;64.00
76470;DHT22;65305;52.870;13.660;2023-02-18T15:01:39;6.00;63.90
76470;DHT22;65305;52.870;13.660;2023-02-18T15:04:05;6.00;63.80
76470;DHT22;65305;52.870;13.660;2023-02-18T15:06:33;6.00;63.70
76470;DHT22;65305;52.870;13.660;2023-02-18T15:09:02;6.00;63.90
76470;DHT22;65305;52.870;13.660;2023-02-18T15:11:34;6.00;63.90
76470;DHT22;65305;52.870;13.660;2023-02-18T15:14:01;6.00;63.70
76470;DHT22;65305;52.870;13.660;2023-02-18T15:16:30;6.00;63.70
76470;DHT22;65305;52.870;13.660;2023-02-18T15:18:58;6.00;63.70
76470;DHT22;65305;52.870;13.660;2023-02-18T15:21:29;6.00;63.80
76470;DHT22;65305;52.870;13.660;2023-02-18T15:24:04;6.00;63.60
76470;DHT22;65305;52.870;13.660;2023-02-18T15:26:31;6.00;63.60
76470;DHT22;65305;52.870;13.660;2023-02-18T15:29:02;6.00;63.50
76470;DHT22;65305;52.870;13.660;2023-02-18T15:31:29;6.00;63.60
76470;DHT22;65305;52.870;13.660;2023-02-18T15:33:56;6.00;63.40
76470;DHT22;65305;52.870;13.660;2023-02-18T15:36:24;6.00;63.40
76470;DHT22;65305;52.870;13.660;2023-02-18T15:38:51;6.00;63.40
76470;DHT22;65305;52.870;13.660;2023-02-18T15:41:18;6.00;63.30
76470;DHT22;65305;52.870;13.660;2023-02-18T15:43:56;6.00;63.30
76470;DHT22;65305;52.870;13.660;2023-02-18T15:46:26;6.00;63.50
76470;DHT22;65305;52.870;13.660;2023-02-18T15:48:53;6.00;63.40
76470;DHT22;65305;52.870;13.660;2023-02-18T15:51:21;6.00;63.30
76470;DHT22;65305;52.870;13.660;2023-02-18T15:53:52;6.00;63.70
76470;DHT22;65305;52.870;13.660;2023-02-18T15:56:25;6.00;63.90
76470;DHT22;65305;52.870;13.660;2023-02-18T15:59:15;6.00;63.60
76470;DHT22;65305;52.870;13.660;2023-02-18T16:01:42;6.00;63.50
76470;DHT22;65305;52.870;13.660;2023-02-18T16:04:10;6.00;63.40
76470;DHT22;65305;52.870;13.660;2023-02-18T16:06:43;6.00;63.30
76470;DHT22;65305;52.870;13.660;2023-02-18T16:09:12;6.00;63.40
76470;DHT22;65305;52.870;13.660;2023-02-18T16:11:40;6.00;63.30
76470;DHT22;65305;52.870;13.660;2023-02-18T16:14:26;6.00;64.00
76470;DHT22;65305;52.870;13.660;2023-02-18T16:16:57;6.00;63.70
76470;DHT22;65305;52.870;13.660;2023-02-18T16:19:26;6.00;63.60
76470;DHT22;65305;52.870;13.660;2023-02-18T16:21:53;6.00;63.70
76470;DHT22;65305;52.870;13.660;2023-02-18T16:24:29;6.00;63.70
76470;DHT22;65305;52.870;13.660;2023-02-18T16:26:59;5.90;63.50
76470;DHT22;65305;52.870;13.660;2023-02-18T16:29:33;6.00;63.80
76470;DHT22;65305;52.870;13.660;2023-02-18T16:32:01;6.00;63.70
76470;DHT22;65305;52.870;13.660;2023-02-18T16:34:27;6.00;63.70
76470;DHT22;65305;52.870;13.660;2023-02-18T16:36:54;5.90;64.00
76470;DHT22;65305;52.870;13.660;2023-02-18T16:39:39;6.00;63.80
76470;DHT22;65305;52.870;13.660;2023-02-18T16:42:11;5.90;63.60
76470;DHT22;65305;52.870;13.660;2023-02-18T16:44:38;6.00;63.60
76470;DHT22;65305;52.870;13.660;2023-02-18T16:47:05;6.00;64.00
76470;DHT22;65305;52.870;13.660;2023-02-18T16:49:31;6.00;64.30
76470;DHT22;65305;52.870;13.660;2023-02-18T16:51:58;5.90;64.30
76470;DHT22;65305;52.870;13.660;2023-02-18T16:54:26;6.00;64.30
76470;DHT22;65305;52.870;13.660;2023-02-18T16:56:54;6.00;64.30
76470;DHT22;65305;52.870;13.660;2023-02-18T16:59:20;5.90;64.20
76470;DHT22;65305;52.870;13.660;2023-02-18T17:01:46;5.90;64.10
76470;DHT22;65305;52.870;13.660;2023-02-18T17:04:14;5.90;64.20
76470;DHT22;65305;52.870;13.660;2023-02-18T17:06:41;5.90;64.20
76470;DHT22;65305;52.870;13.660;2023-02-18T17:09:15;6.00;64.30
76470;DHT22;65305;52.870;13.660;2023-02-18T17:11:44;5.90;64.20
76470;DHT22;65305;52.870;13.660;2023-02-18T17:14:15;6.00;64.20
76470;DHT22;65305;52.870;13.660;2023-02-18T17:16:46;5.90;64.20
76470;DHT22;65305;52.870;13.660;2023-02-18T17:19:12;5.90;64.30
76470;DHT22;65305;52.870;13.660;2023-02-18T17:21:39;5.90;64.20
76470;DHT22;65305;52.870;13.660;2023-02-18T17:24:05;5.90;64.10
76470;DHT22;65305;52.870;13.660;2023-02-18T17:26:32;5.90;64.20
76470;DHT22;65305;52.870;13.660;2023-02-18T17:28:58;5.90;64.10
76470;DHT22;65305;52.870;13.660;2023-02-18T17:31:30;5.90;64.10
76470;DHT22;65305;52.870;13.660;2023-02-18T17:34:00;5.90;64.00
76470;DHT22;65305;52.870;13.660;2023-02-18T17:36:27;5.90;64.00
76470;DHT22;65305;52.870;13.660;2023-02-18T17:38:54;5.90;64.00